Time;durP1;ratioP1;P1;durP2;ratioP2;P2;SDS_P1;SDS_P2;PMS_P1;PMS_P2;Temp;Humidity;BMP_temperature;BMP_pressure;BME280_temperature;BME280_humidity;BME280_pressure;Samples;Min_cycle;Max_cycle;Signal;HPM_P1;HPM_P2
2021/09/28 00:01:29;;;;;;;;;;;8.60;99.90;;;;;;5058183;28;19912;-86
2021/09/28 00:03:55;;;;;;;;;;;8.50;99.90;;;;;;5060498;28;19905;-87
2021/09/28 00:06:20;;;;;;;;;;;8.50;99.90;;;;;;5076414;28;19889;-86
2021/09/28 00:08:46;;;;;;;;;;;8.50;99.90;;;;;;5077125;28;20286;-85
2021/09/28 00:11:12;;;;;;;;;;;8.60;99.90;;;;;;5062691;28;19924;-88
2021/09/28 00:13:38;;;;;;;;;;;8.50;99.90;;;;;;5057122;28;19904;-84
2021/09/28 00:16:04;;;;;;;;;;;8.50;99.90;;;;;;5057921;28;19909;-88
2021/09/28 00:18:29;;;;;;;;;;;8.50;99.90;;;;;;5055689;28;19951;-88
2021/09/28 00:20:55;;;;;;;;;;;8.40;99.90;;;;;;5064363;28;19913;-86
2021/09/28 00:23:21;;;;;;;;;;;8.40;99.90;;;;;;5060557;28;19988;-87
2021/09/28 00:25:49;;;;;;;;;;;8.40;99.90;;;;;;5060529;28;19905;-86
2021/09/28 00:28:16;;;;;;;;;;;8.30;99.90;;;;;;5061733;28;19905;-86
2021/09/28 00:30:43;;;;;;;;;;;8.30;99.90;;;;;;5059996;28;19904;-85
2021/09/28 00:33:09;;;;;;;;;;;8.30;99.90;;;;;;5061103;28;19905;-83
2021/09/28 00:35:35;;;;;;;;;;;8.20;99.90;;;;;;5057199;28;19940;-85
2021/09/28 00:38:01;;;;;;;;;;;8.20;99.90;;;;;;5039011;28;19955;-87
2021/09/28 00:40:26;;;;;;;;;;;8.30;99.90;;;;;;5057158;28;20289;-87
2021/09/28 00:42:52;;;;;;;;;;;8.20;99.90;;;;;;5056724;28;19958;-88
2021/09/28 00:45:18;;;;;;;;;;;8.30;99.90;;;;;;5055122;28;19994;-88
2021/09/28 00:47:44;;;;;;;;;;;8.20;99.90;;;;;;5054993;28;20006;-87
2021/09/28 00:50:10;;;;;;;;;;;8.20;99.90;;;;;;5055518;28;19905;-88
2021/09/28 00:52:36;;;;;;;;;;;8.20;99.90;;;;;;5054246;28;19916;-86
2021/09/28 00:55:02;;;;;;;;;;;8.10;99.90;;;;;;5053505;28;19991;-87
2021/09/28 00:57:28;;;;;;;;;;;8.00;99.90;;;;;;5055878;28;19981;-87
2021/09/28 00:59:54;;;;;;;;;;;8.00;99.90;;;;;;5062343;28;19948;-86
2021/09/28 01:02:20;;;;;;;;;;;8.00;99.90;;;;;;5056915;28;20007;-87
2021/09/28 01:04:46;;;;;;;;;;;7.90;99.90;;;;;;5055496;28;20417;-87
2021/09/28 01:07:13;;;;;;;;;;;7.90;99.90;;;;;;5036934;28;19956;-86
2021/09/28 01:09:40;;;;;;;;;;;7.90;99.90;;;;;;5055747;28;19961;-86
2021/09/28 01:12:07;;;;;;;;;;;7.90;99.90;;;;;;5058697;28;19955;-89
2021/09/28 01:14:32;;;;;;;;;;;7.90;99.90;;;;;;5057782;28;19959;-87
2021/09/28 01:16:58;;;;;;;;;;;8.00;99.90;;;;;;5056171;28;19905;-85
2021/09/28 01:19:24;;;;;;;;;;;7.90;99.90;;;;;;5054425;28;19905;-86
2021/09/28 01:21:50;;;;;;;;;;;8.00;99.90;;;;;;5054745;28;19913;-86
2021/09/28 01:24:15;;;;;;;;;;;8.00;99.90;;;;;;5055088;28;19904;-86
2021/09/28 01:26:41;;;;;;;;;;;8.10;99.90;;;;;;5056466;28;20204;-87
2021/09/28 01:29:07;;;;;;;;;;;8.10;99.90;;;;;;5055811;28;20324;-86
2021/09/28 01:31:34;;;;;;;;;;;8.20;99.90;;;;;;5037461;28;20020;-88
2021/09/28 01:34:00;;;;;;;;;;;8.10;99.90;;;;;;5037000;28;19904;-86
2021/09/28 01:36:26;;;;;;;;;;;8.10;99.90;;;;;;5057217;28;19904;-87
2021/09/28 01:38:51;;;;;;;;;;;8.10;99.90;;;;;;5054406;28;20350;-87
2021/09/28 01:41:17;;;;;;;;;;;8.10;99.90;;;;;;5036570;28;19912;-86
2021/09/28 01:43:43;;;;;;;;;;;8.10;99.90;;;;;;5054295;28;19905;-86
2021/09/28 01:46:09;;;;;;;;;;;8.10;99.90;;;;;;5054310;28;19915;-86
2021/09/28 01:48:34;;;;;;;;;;;8.10;99.90;;;;;;5053844;28;20424;-86
2021/09/28 01:51:00;;;;;;;;;;;8.10;99.90;;;;;;5038813;28;19951;-85
2021/09/28 01:53:26;;;;;;;;;;;8.10;99.90;;;;;;5039838;28;19924;-86
2021/09/28 01:55:51;;;;;;;;;;;8.00;99.90;;;;;;5036390;28;20000;-85
2021/09/28 01:58:17;;;;;;;;;;;8.00;99.90;;;;;;5036275;28;20004;-87
2021/09/28 02:00:44;;;;;;;;;;;8.00;99.90;;;;;;5047006;28;19913;-85
2021/09/28 02:03:09;;;;;;;;;;;8.00;99.90;;;;;;5022118;28;20367;-86
2021/09/28 02:05:35;;;;;;;;;;;8.00;99.90;;;;;;5035062;28;19916;-86
2021/09/28 02:08:01;;;;;;;;;;;8.00;99.90;;;;;;5016684;28;20201;-87
2021/09/28 02:10:27;;;;;;;;;;;8.00;99.90;;;;;;5016519;28;19905;-86
2021/09/28 02:12:52;;;;;;;;;;;8.00;99.90;;;;;;5016116;28;20374;-86
2021/09/28 02:15:18;;;;;;;;;;;8.00;99.90;;;;;;5017358;28;19908;-84
2021/09/28 02:17:44;;;;;;;;;;;8.00;99.90;;;;;;5017489;28;20007;-86
2021/09/28 02:20:10;;;;;;;;;;;8.10;99.90;;;;;;5021030;28;19909;-87
2021/09/28 02:22:35;;;;;;;;;;;8.10;99.90;;;;;;5051652;28;20227;-87
2021/09/28 02:25:01;;;;;;;;;;;8.10;99.90;;;;;;5024132;28;19909;-84
2021/09/28 02:27:28;;;;;;;;;;;8.10;99.90;;;;;;5020404;28;19992;-88
2021/09/28 02:29:54;;;;;;;;;;;8.20;99.90;;;;;;5038988;28;19905;-87
2021/09/28 02:32:20;;;;;;;;;;;8.20;99.90;;;;;;5039280;28;19992;-85
2021/09/28 02:34:45;;;;;;;;;;;8.10;99.70;;;;;;5038938;28;19909;-86
2021/09/28 02:37:12;;;;;;;;;;;8.20;99.80;;;;;;5020527;28;19909;-87
2021/09/28 02:39:40;;;;;;;;;;;8.20;99.80;;;;;;5020099;28;19905;-86
2021/09/28 02:42:06;;;;;;;;;;;8.20;99.80;;;;;;5038028;28;19959;-86
2021/09/28 02:44:32;;;;;;;;;;;8.20;99.70;;;;;;5039720;28;20374;-86
2021/09/28 02:46:57;;;;;;;;;;;8.10;99.60;;;;;;5020075;28;19905;-86
2021/09/28 02:49:23;;;;;;;;;;;8.10;99.50;;;;;;5026974;28;19904;-85
2021/09/28 02:51:49;;;;;;;;;;;8.10;99.50;;;;;;5057188;28;19905;-87
2021/09/28 02:54:14;;;;;;;;;;;8.10;99.20;;;;;;5055368;28;20274;-86
2021/09/28 02:56:42;;;;;;;;;;;8.10;99.20;;;;;;5056887;28;19964;-87
2021/09/28 02:59:08;;;;;;;;;;;8.10;99.20;;;;;;5057702;28;19908;-86
2021/09/28 03:01:34;;;;;;;;;;;8.10;99.00;;;;;;5056514;28;19912;-85
2021/09/28 03:03:59;;;;;;;;;;;8.10;99.00;;;;;;5057793;28;19999;-86
2021/09/28 03:06:25;;;;;;;;;;;8.20;98.80;;;;;;5055773;28;19915;-85
2021/09/28 03:08:50;;;;;;;;;;;8.10;98.80;;;;;;5055357;28;19905;-86
2021/09/28 03:11:16;;;;;;;;;;;8.10;98.60;;;;;;5056616;28;19973;-86
2021/09/28 03:13:42;;;;;;;;;;;8.10;98.40;;;;;;5056097;28;20000;-87
2021/09/28 03:16:07;;;;;;;;;;;8.10;97.40;;;;;;5055553;28;19904;-86
2021/09/28 03:18:33;;;;;;;;;;;8.00;97.50;;;;;;5056540;28;20047;-87
2021/09/28 03:20:59;;;;;;;;;;;8.00;97.50;;;;;;5055109;28;20292;-86
2021/09/28 03:23:24;;;;;;;;;;;8.00;97.50;;;;;;5056288;28;19940;-86
2021/09/28 03:25:50;;;;;;;;;;;8.00;97.40;;;;;;5056502;28;19983;-86
2021/09/28 03:28:16;;;;;;;;;;;8.00;97.30;;;;;;5059603;28;20003;-86
2021/09/28 03:30:42;;;;;;;;;;;8.00;97.20;;;;;;5059547;28;19905;-86
2021/09/28 03:33:08;;;;;;;;;;;8.00;96.50;;;;;;5071225;28;19893;-85
2021/09/28 03:35:34;;;;;;;;;;;7.90;96.40;;;;;;5072981;28;20427;-87
2021/09/28 03:37:59;;;;;;;;;;;7.90;96.50;;;;;;5057611;28;20449;-86
2021/09/28 03:40:29;;;;;;;;;;;7.90;96.40;;;;;;5055972;28;19908;-86
2021/09/28 03:42:55;;;;;;;;;;;7.90;96.30;;;;;;5056831;28;20373;-85
2021/09/28 03:45:20;;;;;;;;;;;7.90;96.30;;;;;;5056047;28;19905;-87
2021/09/28 03:47:46;;;;;;;;;;;7.80;96.40;;;;;;5056340;28;19905;-85
2021/09/28 03:50:12;;;;;;;;;;;7.80;96.20;;;;;;5055440;28;19905;-86
2021/09/28 03:52:37;;;;;;;;;;;7.80;96.10;;;;;;5055517;28;19909;-86
2021/09/28 03:55:03;;;;;;;;;;;7.80;96.00;;;;;;5055361;28;19905;-87
2021/09/28 03:57:29;;;;;;;;;;;7.80;96.00;;;;;;5055606;28;19905;-88
2021/09/28 03:59:56;;;;;;;;;;;7.80;96.00;;;;;;5037289;28;19905;-87
2021/09/28 04:02:21;;;;;;;;;;;7.80;96.10;;;;;;5038200;28;19931;-86
2021/09/28 04:04:47;;;;;;;;;;;7.80;96.10;;;;;;5058042;28;19904;-85
2021/09/28 04:07:13;;;;;;;;;;;7.80;96.10;;;;;;5041918;28;19905;-85
2021/09/28 04:09:39;;;;;;;;;;;7.70;96.20;;;;;;5056538;28;19904;-86
2021/09/28 04:12:05;;;;;;;;;;;7.70;96.40;;;;;;5054912;28;20357;-87
2021/09/28 04:14:30;;;;;;;;;;;7.70;96.50;;;;;;5054829;28;19905;-85
2021/09/28 04:16:56;;;;;;;;;;;7.70;96.50;;;;;;5055033;28;19948;-85
2021/09/28 04:19:22;;;;;;;;;;;7.70;96.60;;;;;;5038174;28;20366;-86
2021/09/28 04:21:47;;;;;;;;;;;7.60;96.60;;;;;;5070034;28;19913;-85
2021/09/28 04:24:14;;;;;;;;;;;7.50;96.40;;;;;;5066843;28;20384;-86
2021/09/28 04:26:40;;;;;;;;;;;7.40;96.60;;;;;;5056434;28;20305;-86
2021/09/28 04:29:05;;;;;;;;;;;7.40;96.50;;;;;;5059818;28;19911;-86
2021/09/28 04:31:31;;;;;;;;;;;7.40;96.50;;;;;;5056039;28;19909;-85
2021/09/28 04:33:57;;;;;;;;;;;7.40;96.70;;;;;;5038991;28;19905;-84
2021/09/28 04:36:22;;;;;;;;;;;7.50;97.00;;;;;;5057285;28;19905;-87
2021/09/28 04:38:49;;;;;;;;;;;7.50;96.70;;;;;;5037826;28;20326;-86
2021/09/28 04:41:14;;;;;;;;;;;7.50;96.70;;;;;;5056610;28;19956;-86
2021/09/28 04:43:40;;;;;;;;;;;7.50;96.50;;;;;;5058820;28;19975;-86
2021/09/28 04:46:06;;;;;;;;;;;7.50;96.40;;;;;;5038579;28;19955;-85
2021/09/28 04:48:32;;;;;;;;;;;7.50;95.70;;;;;;5036729;28;19955;-85
2021/09/28 04:50:57;;;;;;;;;;;7.40;95.30;;;;;;5062852;28;20297;-86
2021/09/28 04:53:24;;;;;;;;;;;7.40;95.30;;;;;;5059847;28;19917;-86
2021/09/28 04:55:54;;;;;;;;;;;7.40;95.10;;;;;;5054637;28;19927;-86
2021/09/28 04:58:22;;;;;;;;;;;7.40;95.40;;;;;;5054963;28;19935;-86
2021/09/28 05:00:49;;;;;;;;;;;7.40;94.90;;;;;;5055593;28;19999;-86
2021/09/28 05:03:15;;;;;;;;;;;7.50;94.60;;;;;;5038036;28;19905;-86
2021/09/28 05:05:40;;;;;;;;;;;7.60;94.50;;;;;;5055592;28;19911;-87
2021/09/28 05:08:06;;;;;;;;;;;7.60;94.50;;;;;;5054812;28;19905;-85
2021/09/28 05:10:32;;;;;;;;;;;7.70;94.20;;;;;;5054617;28;19916;-86
2021/09/28 05:12:58;;;;;;;;;;;7.70;93.70;;;;;;5055830;28;19909;-89
2021/09/28 05:15:23;;;;;;;;;;;7.80;93.70;;;;;;5053320;28;19960;-86
2021/09/28 05:17:49;;;;;;;;;;;7.80;93.70;;;;;;5053855;28;19905;-86
2021/09/28 05:20:15;;;;;;;;;;;7.80;93.20;;;;;;5057573;28;19908;-86
2021/09/28 05:22:40;;;;;;;;;;;7.80;93.30;;;;;;5054796;28;19912;-86
2021/09/28 05:25:06;;;;;;;;;;;7.70;93.10;;;;;;5054310;28;19905;-85
2021/09/28 05:27:32;;;;;;;;;;;7.70;92.90;;;;;;5054695;28;19905;-87
2021/09/28 05:29:57;;;;;;;;;;;7.60;93.10;;;;;;5055333;28;19944;-87
2021/09/28 05:32:23;;;;;;;;;;;7.60;93.20;;;;;;5055627;28;19904;-88
2021/09/28 05:34:49;;;;;;;;;;;7.60;93.30;;;;;;5057507;28;19905;-85
2021/09/28 05:37:15;;;;;;;;;;;7.70;93.40;;;;;;5045968;28;19974;-86
2021/09/28 05:39:40;;;;;;;;;;;7.70;93.30;;;;;;5056343;28;20281;-87
2021/09/28 05:42:06;;;;;;;;;;;7.70;93.00;;;;;;5054444;28;19919;-87
2021/09/28 05:44:32;;;;;;;;;;;7.70;92.70;;;;;;5054461;28;19999;-87
2021/09/28 05:47:01;;;;;;;;;;;7.70;92.90;;;;;;5053889;28;19955;-86
2021/09/28 05:49:27;;;;;;;;;;;7.70;92.70;;;;;;5047199;28;20024;-87
2021/09/28 05:51:54;;;;;;;;;;;7.70;92.70;;;;;;5057660;28;19927;-86
2021/09/28 05:54:23;;;;;;;;;;;7.70;92.70;;;;;;5058003;28;19916;-85
2021/09/28 05:56:50;;;;;;;;;;;7.80;92.70;;;;;;5040401;28;20288;-86
2021/09/28 05:59:15;;;;;;;;;;;7.80;92.90;;;;;;5040692;28;20362;-87
2021/09/28 06:01:41;;;;;;;;;;;7.90;92.80;;;;;;5057816;28;19961;-87
2021/09/28 06:04:07;;;;;;;;;;;8.00;92.80;;;;;;5056127;28;19976;-86
2021/09/28 06:06:32;;;;;;;;;;;8.00;92.50;;;;;;5057985;28;19995;-86
2021/09/28 06:08:58;;;;;;;;;;;8.00;92.30;;;;;;5057473;28;19905;-88
2021/09/28 06:11:24;;;;;;;;;;;8.10;92.40;;;;;;5055737;28;19939;-87
2021/09/28 06:13:50;;;;;;;;;;;8.10;92.30;;;;;;5039267;28;19904;-86
2021/09/28 06:16:16;;;;;;;;;;;8.10;92.40;;;;;;5060425;28;19911;-88
2021/09/28 06:18:42;;;;;;;;;;;8.10;92.40;;;;;;5057185;28;19930;-84
2021/09/28 06:21:11;;;;;;;;;;;8.10;92.20;;;;;;5063038;28;19912;-86
2021/09/28 06:23:37;;;;;;;;;;;8.10;92.20;;;;;;5062748;28;19905;-86
2021/09/28 06:26:03;;;;;;;;;;;8.10;92.30;;;;;;5058529;28;20377;-86
2021/09/28 06:28:29;;;;;;;;;;;8.10;92.40;;;;;;5057227;28;19905;-86
2021/09/28 06:30:55;;;;;;;;;;;8.10;92.10;;;;;;5056851;28;19909;-86
2021/09/28 06:33:21;;;;;;;;;;;8.00;92.10;;;;;;5057699;28;19970;-86
2021/09/28 06:35:46;;;;;;;;;;;8.00;92.20;;;;;;5057185;28;20004;-88
2021/09/28 06:38:12;;;;;;;;;;;7.90;92.20;;;;;;5055796;28;19997;-86
2021/09/28 06:40:38;;;;;;;;;;;7.90;92.30;;;;;;5058206;28;19958;-87
2021/09/28 06:43:04;;;;;;;;;;;7.90;92.50;;;;;;5060079;28;19923;-87
2021/09/28 06:45:29;;;;;;;;;;;8.00;92.70;;;;;;5056458;28;19999;-87
2021/09/28 06:47:56;;;;;;;;;;;8.00;92.50;;;;;;5036934;28;20024;-87
2021/09/28 06:50:21;;;;;;;;;;;8.10;92.50;;;;;;5052969;28;19908;-87
2021/09/28 06:52:47;;;;;;;;;;;8.10;92.50;;;;;;5055802;28;19927;-87
2021/09/28 06:55:17;;;;;;;;;;;8.10;92.40;;;;;;5059628;28;19905;-88
2021/09/28 06:57:42;;;;;;;;;;;8.10;92.40;;;;;;5047297;28;19904;-85
2021/09/28 07:00:08;;;;;;;;;;;8.10;92.00;;;;;;5071190;28;20310;-87
2021/09/28 07:02:34;;;;;;;;;;;8.10;92.00;;;;;;5049374;28;19904;-86
2021/09/28 07:05:00;;;;;;;;;;;8.10;91.90;;;;;;5056861;28;20370;-87
2021/09/28 07:07:27;;;;;;;;;;;8.20;92.30;;;;;;5056766;28;19905;-86
2021/09/28 07:09:53;;;;;;;;;;;8.30;92.10;;;;;;5056413;28;19905;-87
2021/09/28 07:12:18;;;;;;;;;;;8.30;92.00;;;;;;5061827;28;19908;-87
2021/09/28 07:14:44;;;;;;;;;;;8.20;91.70;;;;;;5058781;28;20282;-88
2021/09/28 07:17:10;;;;;;;;;;;8.30;91.80;;;;;;5056271;28;19905;-86
2021/09/28 07:19:35;;;;;;;;;;;8.40;91.80;;;;;;5056965;28;19985;-85
2021/09/28 07:22:01;;;;;;;;;;;8.40;91.20;;;;;;5057343;28;19917;-87
2021/09/28 07:24:27;;;;;;;;;;;8.40;90.80;;;;;;5056970;28;19974;-86
2021/09/28 07:26:52;;;;;;;;;;;8.40;91.00;;;;;;5057589;28;19905;-86
2021/09/28 07:29:21;;;;;;;;;;;8.50;91.10;;;;;;5056823;28;19911;-85
2021/09/28 07:31:46;;;;;;;;;;;8.60;90.30;;;;;;5056372;28;20012;-87
2021/09/28 07:34:12;;;;;;;;;;;8.60;90.00;;;;;;5056530;28;19951;-87
2021/09/28 07:36:38;;;;;;;;;;;8.60;88.10;;;;;;5054526;28;20003;-86
2021/09/28 07:39:04;;;;;;;;;;;8.60;87.70;;;;;;5057204;28;19904;-87
2021/09/28 07:41:30;;;;;;;;;;;8.70;87.80;;;;;;5040313;28;19913;-86
2021/09/28 07:43:55;;;;;;;;;;;8.70;87.70;;;;;;5056244;28;20015;-86
2021/09/28 07:46:21;;;;;;;;;;;8.70;88.00;;;;;;5039830;28;20442;-86
2021/09/28 07:48:48;;;;;;;;;;;8.80;87.80;;;;;;5019420;28;19956;-86
2021/09/28 07:51:14;;;;;;;;;;;8.80;87.40;;;;;;5037990;28;20250;-88
2021/09/28 07:53:40;;;;;;;;;;;8.80;87.80;;;;;;5036968;28;19916;-87
2021/09/28 07:56:06;;;;;;;;;;;8.70;87.90;;;;;;5053492;28;20274;-88
2021/09/28 07:58:31;;;;;;;;;;;8.70;88.60;;;;;;5054744;28;20369;-85
2021/09/28 08:00:57;;;;;;;;;;;8.70;88.90;;;;;;5053862;28;20358;-86
2021/09/28 08:03:23;;;;;;;;;;;8.60;89.30;;;;;;5054135;28;20270;-86
2021/09/28 08:05:49;;;;;;;;;;;8.70;89.50;;;;;;5053641;28;19928;-86
2021/09/28 08:08:15;;;;;;;;;;;8.80;89.60;;;;;;5054748;28;19905;-86
2021/09/28 08:10:40;;;;;;;;;;;8.90;89.00;;;;;;5037055;28;19927;-86
2021/09/28 08:13:06;;;;;;;;;;;8.80;88.90;;;;;;5053335;28;19905;-85
2021/09/28 08:15:33;;;;;;;;;;;8.80;88.70;;;;;;5053509;28;19921;-87
2021/09/28 08:17:59;;;;;;;;;;;8.80;88.90;;;;;;5055654;28;19909;-86
2021/09/28 08:20:24;;;;;;;;;;;8.80;88.60;;;;;;5066006;28;19918;-85
2021/09/28 08:22:50;;;;;;;;;;;8.80;88.40;;;;;;5068177;28;19904;-86
2021/09/28 08:25:18;;;;;;;;;;;8.90;89.00;;;;;;5056382;28;20389;-86
2021/09/28 08:30:32;;;;;;;;;;;9.10;87.60;;;;;;5057746;28;19928;-87
2021/09/28 08:32:58;;;;;;;;;;;9.20;86.80;;;;;;5037280;28;19944;-86
2021/09/28 08:35:24;;;;;;;;;;;9.20;85.10;;;;;;5056533;28;19904;-86
2021/09/28 08:37:49;;;;;;;;;;;9.20;85.80;;;;;;5055406;28;19905;-86
2021/09/28 08:40:16;;;;;;;;;;;9.10;86.00;;;;;;5058934;28;19911;-86
2021/09/28 08:42:42;;;;;;;;;;;9.10;85.50;;;;;;5055501;28;19916;-87
2021/09/28 08:45:08;;;;;;;;;;;9.00;85.90;;;;;;5024108;28;20227;-85
2021/09/28 08:47:44;;;;;;;;;;;9.00;86.50;;;;;;5017501;28;19905;-87
2021/09/28 08:50:14;;;;;;;;;;;9.10;86.70;;;;;;5048389;28;19951;-89
2021/09/28 08:52:41;;;;;;;;;;;9.10;86.20;;;;;;5052920;28;19912;-86
2021/09/28 08:55:06;;;;;;;;;;;9.20;86.30;;;;;;5037712;28;19909;-88
2021/09/28 08:57:32;;;;;;;;;;;9.30;85.80;;;;;;5053750;28;20049;-86
2021/09/28 08:59:59;;;;;;;;;;;9.40;85.40;;;;;;5054304;28;19958;-86
2021/09/28 09:02:47;;;;;;;;;;;9.30;84.60;;;;;;5055588;28;20358;-88
2021/09/28 09:05:16;;;;;;;;;;;9.40;84.10;;;;;;5054817;28;19904;-87
2021/09/28 09:07:43;;;;;;;;;;;9.40;83.90;;;;;;5037671;28;19952;-86
2021/09/28 09:10:09;;;;;;;;;;;9.30;83.80;;;;;;5053219;28;19982;-85
2021/09/28 09:12:38;;;;;;;;;;;9.30;84.30;;;;;;5035998;28;20334;-87
2021/09/28 09:15:17;;;;;;;;;;;9.30;85.00;;;;;;5036593;28;19995;-88
2021/09/28 09:17:43;;;;;;;;;;;9.20;84.40;;;;;;5054431;28;20396;-86
2021/09/28 09:20:22;;;;;;;;;;;9.00;84.70;;;;;;5036575;28;20288;-89
2021/09/28 09:22:48;;;;;;;;;;;8.90;84.90;;;;;;5056232;28;20388;-86
2021/09/28 09:25:24;;;;;;;;;;;8.90;85.60;;;;;;5051982;28;19904;-86
2021/09/28 09:27:50;;;;;;;;;;;9.00;85.40;;;;;;5037524;28;19905;-87
2021/09/28 09:30:20;;;;;;;;;;;8.90;85.20;;;;;;5041248;28;19911;-87
2021/09/28 09:32:55;;;;;;;;;;;8.80;85.20;;;;;;5041501;28;19950;-87
2021/09/28 09:35:28;;;;;;;;;;;8.80;85.00;;;;;;5058331;28;19905;-86
2021/09/28 09:38:07;;;;;;;;;;;8.80;85.20;;;;;;5040246;28;19911;-85
2021/09/28 09:40:33;;;;;;;;;;;9.00;85.20;;;;;;5040143;28;19920;-87
2021/09/28 09:42:59;;;;;;;;;;;9.20;84.90;;;;;;5039205;28;19904;-86
2021/09/28 09:45:25;;;;;;;;;;;9.30;83.70;;;;;;5056329;28;20007;-86
2021/09/28 09:47:51;;;;;;;;;;;9.40;83.10;;;;;;5057422;28;19909;-86
2021/09/28 09:50:18;;;;;;;;;;;9.60;83.10;;;;;;5058737;28;19905;-85
2021/09/28 09:53:00;;;;;;;;;;;9.70;81.40;;;;;;5057782;28;19957;-87
2021/09/28 09:55:29;;;;;;;;;;;9.90;81.80;;;;;;5057947;28;20281;-87
2021/09/28 09:57:55;;;;;;;;;;;10.50;80.30;;;;;;5058331;28;20026;-85
2021/09/28 10:00:21;;;;;;;;;;;10.90;79.80;;;;;;5057548;28;19978;-88
2021/09/28 10:02:47;;;;;;;;;;;11.30;79.10;;;;;;5040048;28;19905;-87
2021/09/28 10:05:13;;;;;;;;;;;11.40;76.60;;;;;;5057455;28;19911;-85
2021/09/28 10:07:39;;;;;;;;;;;11.00;75.60;;;;;;5057589;28;19905;-84
2021/09/28 10:10:09;;;;;;;;;;;10.70;75.20;;;;;;5057313;28;20000;-87
2021/09/28 10:12:35;;;;;;;;;;;10.60;76.30;;;;;;5057768;28;20411;-86
2021/09/28 10:15:05;;;;;;;;;;;10.60;76.40;;;;;;5044841;28;20417;-85
2021/09/28 10:17:36;;;;;;;;;;;10.60;75.70;;;;;;5042703;28;20045;-87
2021/09/28 10:20:03;;;;;;;;;;;10.60;75.80;;;;;;5041844;28;20358;-87
2021/09/28 10:22:36;;;;;;;;;;;10.70;75.70;;;;;;5062056;28;19918;-84
2021/09/28 10:25:23;;;;;;;;;;;10.70;74.50;;;;;;5053658;28;19909;-86
2021/09/28 10:28:04;;;;;;;;;;;10.70;74.70;;;;;;5067563;28;19912;-87
2021/09/28 10:33:02;;;;;;;;;;;10.90;75.70;;;;;;5063550;28;19944;-86
2021/09/28 10:35:31;;;;;;;;;;;11.00;75.30;;;;;;5042959;28;19995;-85
2021/09/28 10:38:04;;;;;;;;;;;11.10;75.60;;;;;;5057111;28;19905;-87
2021/09/28 10:40:30;;;;;;;;;;;11.30;75.40;;;;;;5038325;28;19913;-86
2021/09/28 10:42:58;;;;;;;;;;;11.40;73.40;;;;;;5039856;28;19974;-86
2021/09/28 10:45:27;;;;;;;;;;;11.40;71.50;;;;;;5056916;28;19905;-86
2021/09/28 10:47:56;;;;;;;;;;;11.20;70.40;;;;;;5057768;28;20282;-87
2021/09/28 10:50:22;;;;;;;;;;;11.00;70.90;;;;;;5055789;28;19915;-87
2021/09/28 10:52:49;;;;;;;;;;;10.80;70.90;;;;;;5079039;28;19912;-87
2021/09/28 10:55:25;;;;;;;;;;;10.60;71.40;;;;;;5078337;28;19949;-86
2021/09/28 10:58:04;;;;;;;;;;;10.50;71.80;;;;;;5077339;28;19909;-87
2021/09/28 11:00:52;;;;;;;;;;;10.50;72.60;;;;;;5075784;28;19908;-86
2021/09/28 11:03:37;;;;;;;;;;;10.60;72.20;;;;;;5076988;28;19947;-89
2021/09/28 11:06:05;;;;;;;;;;;10.60;72.80;;;;;;5075479;28;19939;-85
2021/09/28 11:08:35;;;;;;;;;;;10.50;72.20;;;;;;5082438;28;20297;-87
2021/09/28 11:11:04;;;;;;;;;;;10.30;72.20;;;;;;5081846;28;20162;-86
2021/09/28 11:13:31;;;;;;;;;;;10.20;72.50;;;;;;5081332;28;19905;-86
2021/09/28 11:15:57;;;;;;;;;;;10.30;73.10;;;;;;5088393;28;19972;-87
2021/09/28 11:18:23;;;;;;;;;;;10.40;73.20;;;;;;5084321;28;19904;-86
2021/09/28 11:20:49;;;;;;;;;;;10.40;72.80;;;;;;5080642;28;19976;-86
2021/09/28 11:23:15;;;;;;;;;;;10.60;73.10;;;;;;5087047;28;20315;-87
2021/09/28 11:25:57;;;;;;;;;;;10.90;72.20;;;;;;5089179;28;19900;-89
2021/09/28 11:28:24;;;;;;;;;;;11.00;72.40;;;;;;5089363;28;19905;-86
2021/09/28 11:30:53;;;;;;;;;;;10.90;72.90;;;;;;5079292;28;19911;-90
2021/09/28 11:33:20;;;;;;;;;;;10.80;72.80;;;;;;5077106;28;19983;-87
2021/09/28 11:36:03;;;;;;;;;;;10.70;72.60;;;;;;5076480;28;19905;-86
2021/09/28 11:38:29;;;;;;;;;;;10.50;73.10;;;;;;5076321;28;19910;-87
2021/09/28 11:41:04;;;;;;;;;;;10.30;73.40;;;;;;5067509;28;19912;-86
2021/09/28 11:43:30;;;;;;;;;;;10.20;74.30;;;;;;5037279;28;19914;-86
2021/09/28 11:45:59;;;;;;;;;;;10.10;75.00;;;;;;5038104;28;20300;-87
2021/09/28 11:48:29;;;;;;;;;;;10.10;76.00;;;;;;5059163;28;19905;-86
2021/09/28 11:50:55;;;;;;;;;;;10.10;75.50;;;;;;5061146;28;19947;-87
2021/09/28 11:53:20;;;;;;;;;;;10.00;74.90;;;;;;5058596;28;20389;-86
2021/09/28 11:55:46;;;;;;;;;;;10.10;75.00;;;;;;5055597;28;19994;-86
2021/09/28 11:58:13;;;;;;;;;;;10.10;75.20;;;;;;5058078;28;20261;-88
2021/09/28 12:00:43;;;;;;;;;;;10.10;74.90;;;;;;5039236;28;19912;-87
2021/09/28 12:03:13;;;;;;;;;;;10.10;74.90;;;;;;5058238;28;19905;-87
2021/09/28 12:08:20;;;;;;;;;;;10.20;75.60;;;;;;5055771;28;20326;-87
2021/09/28 12:10:45;;;;;;;;;;;10.40;75.60;;;;;;5056894;28;19909;-87
2021/09/28 12:13:25;;;;;;;;;;;10.40;74.00;;;;;;5056116;28;19959;-86
2021/09/28 12:16:08;;;;;;;;;;;10.50;73.80;;;;;;5040093;28;19909;-85
2021/09/28 12:18:36;;;;;;;;;;;10.70;74.20;;;;;;5060023;28;20370;-87
2021/09/28 12:21:08;;;;;;;;;;;10.90;73.60;;;;;;5058265;28;19913;-87
2021/09/28 12:23:34;;;;;;;;;;;11.20;73.90;;;;;;5041178;28;20295;-84
2021/09/28 12:25:59;;;;;;;;;;;11.40;73.40;;;;;;5054685;28;20038;-86
2021/09/28 12:28:26;;;;;;;;;;;11.60;72.30;;;;;;5055085;28;19905;-86
2021/09/28 12:30:55;;;;;;;;;;;11.60;71.80;;;;;;5061531;28;20396;-85
2021/09/28 12:33:21;;;;;;;;;;;11.50;71.80;;;;;;5071468;28;19916;-85
2021/09/28 12:35:57;;;;;;;;;;;11.40;71.50;;;;;;5057642;28;19908;-86
2021/09/28 12:38:23;;;;;;;;;;;11.10;71.20;;;;;;5036989;28;19974;-85
2021/09/28 12:40:49;;;;;;;;;;;10.90;70.80;;;;;;5054646;28;19952;-85
2021/09/28 12:43:21;;;;;;;;;;;10.80;71.30;;;;;;5055842;28;20270;-85
2021/09/28 12:45:49;;;;;;;;;;;10.70;71.90;;;;;;5040148;28;20309;-86
2021/09/28 12:48:15;;;;;;;;;;;10.60;72.00;;;;;;5036136;28;19912;-88
2021/09/28 12:50:42;;;;;;;;;;;10.60;72.20;;;;;;5037464;28;19908;-87
2021/09/28 12:53:10;;;;;;;;;;;10.60;72.60;;;;;;5054166;28;20330;-85
2021/09/28 12:55:42;;;;;;;;;;;10.70;72.70;;;;;;5054669;28;19905;-85
2021/09/28 12:58:12;;;;;;;;;;;10.80;72.70;;;;;;5036836;28;19939;-86
2021/09/28 13:00:38;;;;;;;;;;;10.90;72.30;;;;;;5037189;28;20373;-87
2021/09/28 13:03:05;;;;;;;;;;;11.10;72.10;;;;;;5054600;28;19904;-86
2021/09/28 13:05:34;;;;;;;;;;;11.20;71.90;;;;;;5036503;28;20286;-86
2021/09/28 13:08:00;;;;;;;;;;;11.10;71.30;;;;;;5054277;28;19912;-87
2021/09/28 13:10:31;;;;;;;;;;;11.10;71.20;;;;;;5052826;28;20251;-86
2021/09/28 13:12:57;;;;;;;;;;;11.00;71.30;;;;;;5054260;28;19905;-86
2021/09/28 13:15:23;;;;;;;;;;;10.90;71.90;;;;;;5036625;28;20312;-86
2021/09/28 13:17:49;;;;;;;;;;;10.80;72.40;;;;;;5056055;28;19916;-86
2021/09/28 13:20:16;;;;;;;;;;;10.80;73.00;;;;;;5058527;28;19991;-88
2021/09/28 13:22:44;;;;;;;;;;;10.70;73.40;;;;;;5064041;28;19909;-86
2021/09/28 13:25:10;;;;;;;;;;;10.70;73.90;;;;;;5058729;28;19904;-85
2021/09/28 13:27:35;;;;;;;;;;;10.80;74.20;;;;;;5055493;28;20282;-85
2021/09/28 13:30:02;;;;;;;;;;;10.80;74.00;;;;;;5055623;28;19905;-84
2021/09/28 13:32:28;;;;;;;;;;;10.90;73.90;;;;;;5056377;28;19905;-85
2021/09/28 13:34:54;;;;;;;;;;;10.90;73.60;;;;;;5054253;28;20346;-87
2021/09/28 13:37:30;;;;;;;;;;;10.80;72.10;;;;;;5054346;28;20331;-86
2021/09/28 13:39:56;;;;;;;;;;;10.80;72.10;;;;;;5034207;28;20342;-86
2021/09/28 13:42:22;;;;;;;;;;;10.70;72.00;;;;;;5033923;28;19913;-86
2021/09/28 13:44:47;;;;;;;;;;;10.60;72.10;;;;;;5017425;28;19911;-87
2021/09/28 13:47:14;;;;;;;;;;;10.50;71.80;;;;;;5036516;28;19913;-86
2021/09/28 13:49:40;;;;;;;;;;;10.50;72.20;;;;;;5060313;28;19936;-87
2021/09/28 13:52:06;;;;;;;;;;;10.40;72.50;;;;;;5085851;28;19909;-86
2021/09/28 13:54:35;;;;;;;;;;;10.30;72.70;;;;;;5078685;28;19927;-88
2021/09/28 13:57:01;;;;;;;;;;;10.30;73.10;;;;;;5073972;28;19912;-86
2021/09/28 13:59:27;;;;;;;;;;;10.20;73.30;;;;;;5072482;28;19992;-87
2021/09/28 14:01:53;;;;;;;;;;;10.30;73.70;;;;;;5072445;28;19944;-86
2021/09/28 14:04:21;;;;;;;;;;;10.30;73.90;;;;;;5073060;28;19904;-87
2021/09/28 14:06:47;;;;;;;;;;;10.30;74.00;;;;;;5072346;28;19904;-86
2021/09/28 14:09:12;;;;;;;;;;;10.40;74.10;;;;;;5074255;28;19904;-86
2021/09/28 14:11:40;;;;;;;;;;;10.40;73.80;;;;;;5073111;28;19962;-88
2021/09/28 14:14:06;;;;;;;;;;;10.40;73.20;;;;;;5058053;28;19939;-86
2021/09/28 14:16:32;;;;;;;;;;;10.30;73.30;;;;;;5079903;28;19915;-86
2021/09/28 14:18:57;;;;;;;;;;;10.30;73.50;;;;;;5061450;28;19939;-85
2021/09/28 14:21:23;;;;;;;;;;;10.30;73.80;;;;;;5076188;28;19965;-88
2021/09/28 14:23:49;;;;;;;;;;;10.20;74.10;;;;;;5076819;28;19904;-85
2021/09/28 14:26:14;;;;;;;;;;;10.10;74.30;;;;;;5077748;28;19904;-86
2021/09/28 14:28:40;;;;;;;;;;;10.10;74.70;;;;;;5077997;28;19912;-87
2021/09/28 14:31:06;;;;;;;;;;;10.00;74.70;;;;;;5080346;28;19999;-87
2021/09/28 14:33:33;;;;;;;;;;;10.00;74.90;;;;;;5076212;28;19998;-87